createdAt,value
2017-07-28T00:00:13.793Z,0
2017-07-28T00:01:24.067Z,0
2017-07-28T00:02:34.025Z,0
2017-07-28T00:03:44.295Z,0
2017-07-28T00:04:54.254Z,0
2017-07-28T00:06:04.233Z,0
2017-07-28T00:07:14.503Z,0
2017-07-28T00:08:24.774Z,0
2017-07-28T00:09:34.417Z,0
2017-07-28T00:10:44.372Z,0
2017-07-28T00:11:54.643Z,0
2017-07-28T00:13:04.912Z,0
2017-07-28T00:14:14.555Z,0
2017-07-28T00:15:24.836Z,0
2017-07-28T00:16:35.107Z,0
2017-07-28T00:17:45.383Z,0
2017-07-28T00:18:55.652Z,0
2017-07-28T00:20:05.927Z,0
2017-07-28T00:21:15.569Z,0
2017-07-28T00:22:25.523Z,0
2017-07-28T00:23:35.801Z,0
2017-07-28T00:24:46.074Z,0
2017-07-28T00:25:56.345Z,0
2017-07-28T00:27:06.307Z,0
2017-07-28T00:28:16.582Z,0
2017-07-28T00:29:26.852Z,0
2017-07-28T00:30:36.178Z,0
2017-07-28T00:31:46.450Z,0
2017-07-28T00:32:56.406Z,0
2017-07-28T00:34:06.675Z,0
2017-07-28T00:35:16.633Z,0
2017-07-28T00:36:26.900Z,0
2017-07-28T00:37:36.549Z,0
2017-07-28T00:38:46.817Z,0
2017-07-28T00:39:57.089Z,0
2017-07-28T00:41:07.367Z,0
2017-07-28T00:42:17.011Z,0
2017-07-28T00:43:27.323Z,0
2017-07-28T00:44:37.602Z,0
2017-07-28T00:45:47.877Z,0
2017-07-28T00:46:57.828Z,0
2017-07-28T00:48:08.102Z,0
2017-07-28T00:49:18.371Z,0
2017-07-28T00:50:28.328Z,0
2017-07-28T00:51:38.601Z,0
2017-07-28T00:52:48.560Z,0
2017-07-28T00:53:58.533Z,0
2017-07-28T00:55:08.803Z,0
2017-07-28T00:56:19.074Z,0
2017-07-28T00:57:29.352Z,0
2017-07-28T00:58:39.312Z,0
2017-07-28T00:59:49.587Z,0
2017-07-28T01:00:59.855Z,0
2017-07-28T01:02:10.129Z,0
2017-07-28T01:03:20.397Z,0
2017-07-28T01:04:30.349Z,0
2017-07-28T01:05:40.306Z,0
2017-07-28T01:06:50.581Z,0
2017-07-28T01:08:00.855Z,0
2017-07-28T01:09:11.123Z,0
2017-07-28T01:10:21.391Z,0
2017-07-28T01:11:31.662Z,0
2017-07-28T01:12:41.943Z,0
2017-07-28T01:13:51.912Z,0
2017-07-28T01:15:02.186Z,0
2017-07-28T01:16:12.170Z,0
2017-07-28T01:17:22.126Z,0
2017-07-28T01:18:32.398Z,0
2017-07-28T01:19:42.676Z,0
2017-07-28T01:20:52.944Z,0
2017-07-28T01:22:02.897Z,0
2017-07-28T01:23:12.857Z,0
2017-07-28T01:24:23.129Z,0
2017-07-28T01:25:33.406Z,0
2017-07-28T01:26:43.678Z,0
2017-07-28T01:27:53.940Z,0
2017-07-28T01:29:03.893Z,0
2017-07-28T01:30:13.849Z,0
2017-07-28T01:31:23.805Z,0
2017-07-28T01:32:34.075Z,0
2017-07-28T01:33:44.342Z,0
2017-07-28T01:34:54.611Z,0
2017-07-28T01:36:04.254Z,0
2017-07-28T01:37:14.526Z,0
2017-07-28T01:38:24.488Z,0
2017-07-28T01:39:34.445Z,0
2017-07-28T01:40:44.712Z,0
2017-07-28T01:41:54.991Z,0
2017-07-28T01:43:04.949Z,0
2017-07-28T01:44:15.222Z,0
2017-07-28T01:45:25.490Z,0
2017-07-28T01:46:35.761Z,0
2017-07-28T01:47:46.031Z,0
2017-07-28T01:48:55.986Z,0
2017-07-28T01:50:06.267Z,0
2017-07-28T01:51:16.226Z,0
2017-07-28T01:52:26.498Z,0
2017-07-28T01:53:36.772Z,0
2017-07-28T01:54:47.037Z,0
2017-07-28T01:55:57.313Z,4
2017-07-28T01:57:07.586Z,4
2017-07-28T01:58:17.855Z,4
2017-07-28T01:59:27.499Z,4
2017-07-28T02:00:37.451Z,0
2017-07-28T02:01:47.716Z,0
2017-07-28T02:02:57.989Z,4
2017-07-28T02:04:07.942Z,4
2017-07-28T02:05:17.896Z,8
2017-07-28T02:06:28.166Z,4
2017-07-28T02:07:38.129Z,4
2017-07-28T02:08:48.406Z,4
2017-07-28T02:09:58.672Z,4
2017-07-28T02:11:08.941Z,8
2017-07-28T02:12:18.891Z,8
2017-07-28T02:13:29.154Z,8
2017-07-28T02:14:38.793Z,8
2017-07-28T02:15:48.748Z,8
2017-07-28T02:16:58.698Z,8
2017-07-28T02:18:08.973Z,8
2017-07-28T02:19:19.241Z,8
2017-07-28T02:20:28.887Z,8
2017-07-28T02:21:38.838Z,8
2017-07-28T02:22:49.122Z,8
2017-07-28T02:23:59.394Z,8
2017-07-28T02:25:09.350Z,8
2017-07-28T02:26:19.624Z,8
2017-07-28T02:27:29.577Z,12
2017-07-28T02:28:39.257Z,16
2017-07-28T02:29:49.533Z,20
2017-07-28T02:30:59.803Z,24
2017-07-28T02:32:10.099Z,28
2017-07-28T02:33:20.069Z,32
2017-07-28T02:34:29.402Z,36
2017-07-28T02:35:39.672Z,36
2017-07-28T02:36:49.628Z,36
2017-07-28T02:37:59.915Z,36
2017-07-28T02:39:10.199Z,36
2017-07-28T02:40:20.471Z,36
2017-07-28T02:41:30.432Z,36
2017-07-28T02:42:40.701Z,36
2017-07-28T02:43:50.972Z,40
2017-07-28T02:45:01.254Z,44
2017-07-28T02:46:10.899Z,48
2017-07-28T02:47:21.170Z,52
2017-07-28T02:48:31.437Z,56
2017-07-28T02:49:41.703Z,64
2017-07-28T02:50:51.343Z,76
2017-07-28T02:52:01.295Z,84
2017-07-28T02:53:11.563Z,96
2017-07-28T02:54:21.515Z,108
2017-07-28T02:55:31.467Z,116
2017-07-28T02:56:41.733Z,124
2017-07-28T02:57:52.021Z,136
2017-07-28T02:59:02.298Z,148
2017-07-28T03:00:12.568Z,156
2017-07-28T03:01:22.837Z,172
2017-07-28T03:02:33.114Z,184
2017-07-28T03:03:43.383Z,196
2017-07-28T03:04:53.649Z,212
2017-07-28T03:06:03.919Z,232
2017-07-28T03:07:13.875Z,244
2017-07-28T03:08:23.830Z,260
2017-07-28T03:09:34.104Z,280
2017-07-28T03:10:44.068Z,304
2017-07-28T03:11:53.708Z,324
2017-07-28T03:13:03.987Z,344
2017-07-28T03:14:14.256Z,368
2017-07-28T03:15:24.539Z,392
2017-07-28T03:16:34.851Z,416
2017-07-28T03:17:45.124Z,432
2017-07-28T03:18:55.394Z,444
2017-07-28T03:20:05.355Z,460
2017-07-28T03:21:15.627Z,472
2017-07-28T03:22:25.895Z,484
2017-07-28T03:23:35.539Z,504
2017-07-28T03:24:45.813Z,524
2017-07-28T03:25:56.080Z,548
2017-07-28T03:27:06.349Z,580
2017-07-28T03:28:16.304Z,608
2017-07-28T03:29:26.264Z,636
2017-07-28T03:30:36.551Z,672
2017-07-28T03:31:46.507Z,700
2017-07-28T03:32:56.463Z,732
2017-07-28T03:34:06.421Z,776
2017-07-28T03:35:16.062Z,832
2017-07-28T03:36:26.020Z,892
2017-07-28T03:37:35.976Z,948
2017-07-28T03:38:46.254Z,996
2017-07-28T03:39:56.522Z,1032
2017-07-28T03:41:06.791Z,1068
2017-07-28T03:42:17.063Z,1096
2017-07-28T03:43:27.327Z,1124
2017-07-28T03:44:36.971Z,1144
2017-07-28T03:45:46.930Z,1160
2017-07-28T03:46:57.202Z,1180
2017-07-28T03:48:06.842Z,1208
2017-07-28T03:49:16.799Z,1220
2017-07-28T03:50:27.077Z,1240
2017-07-28T03:51:37.031Z,1252
2017-07-28T03:52:47.307Z,1268
2017-07-28T03:53:57.262Z,1284
2017-07-28T03:55:07.216Z,1292
2017-07-28T03:56:16.541Z,1300
2017-07-28T03:57:26.805Z,1292
2017-07-28T03:58:36.768Z,1276
2017-07-28T03:59:47.040Z,1256
2017-07-28T04:00:57.315Z,1244
2017-07-28T04:02:07.584Z,1228
2017-07-28T04:03:17.857Z,1220
2017-07-28T04:04:27.814Z,1200
2017-07-28T04:05:37.775Z,1188
2017-07-28T04:06:48.043Z,1196
2017-07-28T04:07:58.314Z,1224
2017-07-28T04:09:08.588Z,1280
2017-07-28T04:10:18.859Z,1344
2017-07-28T04:11:29.139Z,1404
2017-07-28T04:12:39.404Z,1444
2017-07-28T04:13:49.690Z,1472
2017-07-28T04:14:59.651Z,1508
2017-07-28T04:16:09.608Z,1564
2017-07-28T04:17:19.896Z,1624
2017-07-28T04:18:30.167Z,1652
2017-07-28T04:19:40.440Z,1648
2017-07-28T04:20:50.713Z,1648
2017-07-28T04:22:00.984Z,1672
2017-07-28T04:23:11.263Z,1716
2017-07-28T04:24:21.249Z,1768
2017-07-28T04:25:31.533Z,1816
2017-07-28T04:26:41.802Z,1888
2017-07-28T04:27:52.075Z,1968
2017-07-28T04:29:01.717Z,2080
2017-07-28T04:30:11.671Z,2196
2017-07-28T04:31:21.947Z,2320
2017-07-28T04:32:31.909Z,2440
2017-07-28T04:33:42.178Z,2540
2017-07-28T04:34:52.445Z,2608
2017-07-28T04:36:02.716Z,2640
2017-07-28T04:37:12.673Z,2636
2017-07-28T04:38:22.623Z,2616
2017-07-28T04:39:32.584Z,2580
2017-07-28T04:40:42.858Z,2600
2017-07-28T04:41:53.130Z,2620
2017-07-28T04:43:03.097Z,2652
2017-07-28T04:44:13.051Z,2696
2017-07-28T04:45:23.319Z,2756
2017-07-28T04:46:33.587Z,2788
2017-07-28T04:47:43.853Z,2784
2017-07-28T04:48:53.823Z,2708
2017-07-28T04:50:04.090Z,2568
2017-07-28T04:51:14.046Z,2364
2017-07-28T04:52:24.313Z,2180
2017-07-28T04:53:34.278Z,2064
2017-07-28T04:54:43.916Z,2016
2017-07-28T04:55:54.181Z,2028
2017-07-28T04:57:04.451Z,2084
2017-07-28T04:58:14.727Z,2132
2017-07-28T04:59:24.993Z,2184
2017-07-28T05:00:34.950Z,2212
2017-07-28T05:01:45.217Z,2280
2017-07-28T05:02:55.488Z,2300
2017-07-28T05:04:05.759Z,2316
2017-07-28T05:05:16.031Z,2320
2017-07-28T05:06:25.985Z,2348
2017-07-28T05:07:36.253Z,2396
2017-07-28T05:08:46.519Z,2448
2017-07-28T05:09:56.476Z,2532
2017-07-28T05:11:06.755Z,2616
2017-07-28T05:12:17.027Z,2660
2017-07-28T05:13:27.305Z,2656
2017-07-28T05:14:37.287Z,2568
2017-07-28T05:15:47.567Z,2440
2017-07-28T05:16:57.840Z,2296
2017-07-28T05:18:08.108Z,2172
2017-07-28T05:19:18.378Z,2076
2017-07-28T05:20:28.656Z,2024
2017-07-28T05:21:38.303Z,2020
2017-07-28T05:22:48.569Z,2080
2017-07-28T05:23:58.524Z,2212
2017-07-28T05:25:08.798Z,2364
2017-07-28T05:26:19.074Z,2492
2017-07-28T05:27:29.347Z,2588
2017-07-28T05:28:39.619Z,2648
2017-07-28T05:29:49.572Z,2668
2017-07-28T05:30:59.525Z,2664
2017-07-28T05:32:09.799Z,2636
2017-07-28T05:33:19.756Z,2632
2017-07-28T05:34:30.020Z,2676
2017-07-28T05:35:39.972Z,2736
2017-07-28T05:36:50.252Z,2812
2017-07-28T05:38:00.205Z,2864
2017-07-28T05:39:10.499Z,2848
2017-07-28T05:40:20.771Z,2764
2017-07-28T05:41:31.042Z,2728
2017-07-28T05:42:41.327Z,2756
2017-07-28T05:43:51.606Z,2840
2017-07-28T05:45:01.584Z,2936
2017-07-28T05:46:11.229Z,3004
2017-07-28T05:47:21.504Z,3020
2017-07-28T05:48:31.777Z,3032
2017-07-28T05:49:41.739Z,3048
2017-07-28T05:50:52.011Z,3080
2017-07-28T05:52:02.282Z,3064
2017-07-28T05:53:11.928Z,3072
2017-07-28T05:54:21.905Z,3112
2017-07-28T05:55:31.861Z,3232
2017-07-28T05:56:42.137Z,3428
2017-07-28T05:57:52.407Z,3620
2017-07-28T05:59:02.679Z,3724
2017-07-28T06:00:12.956Z,3812
2017-07-28T06:01:22.921Z,3916
2017-07-28T06:02:33.189Z,4048
2017-07-28T06:03:43.151Z,4192
2017-07-28T06:04:53.104Z,4320
2017-07-28T06:06:03.410Z,4384
2017-07-28T06:07:13.687Z,4484
2017-07-28T06:08:24.013Z,4652
2017-07-28T06:09:34.283Z,4864
2017-07-28T06:10:44.553Z,5072
2017-07-28T06:11:54.822Z,5292
2017-07-28T06:13:05.096Z,5484
2017-07-28T06:14:15.053Z,5612
2017-07-28T06:15:25.322Z,5668
2017-07-28T06:16:35.295Z,5696
2017-07-28T06:17:45.576Z,5688
2017-07-28T06:18:55.848Z,5700
2017-07-28T06:20:05.815Z,5748
2017-07-28T06:21:15.773Z,5800
2017-07-28T06:22:26.042Z,5872
2017-07-28T06:23:36.002Z,5976
2017-07-28T06:24:45.984Z,6028
2017-07-28T06:25:56.256Z,5824
2017-07-28T06:27:06.527Z,5716
2017-07-28T06:28:16.497Z,5708
2017-07-28T06:29:26.455Z,5728
2017-07-28T06:30:36.724Z,6104
2017-07-28T06:31:46.697Z,5960
2017-07-28T06:32:56.965Z,5980
2017-07-28T06:34:07.239Z,6148
2017-07-28T06:35:17.519Z,6132
2017-07-28T06:36:27.796Z,6024
2017-07-28T06:37:37.753Z,6048
2017-07-28T06:38:48.030Z,6144
2017-07-28T06:39:57.996Z,6156
2017-07-28T06:41:08.270Z,6060
2017-07-28T06:42:18.229Z,6048
2017-07-28T06:43:28.195Z,6108
2017-07-28T06:44:38.153Z,6140
2017-07-28T06:45:48.446Z,6484
2017-07-28T06:46:57.771Z,6620
2017-07-28T06:48:08.042Z,6032
2017-07-28T06:49:18.320Z,5640
2017-07-28T06:50:28.592Z,5760
2017-07-28T06:51:38.553Z,6016
2017-07-28T06:52:48.822Z,6476
2017-07-28T06:53:59.101Z,6788
2017-07-28T06:55:09.064Z,6732
2017-07-28T06:56:19.341Z,6552
2017-07-28T06:57:29.610Z,6556
2017-07-28T06:58:39.254Z,6420
2017-07-28T06:59:49.208Z,6140
2017-07-28T07:00:59.494Z,5924
2017-07-28T07:02:09.763Z,6012
2017-07-28T07:03:20.033Z,6152
2017-07-28T07:04:30.308Z,6492
2017-07-28T07:05:40.583Z,6716
2017-07-28T07:06:50.855Z,6748
2017-07-28T07:08:01.133Z,6760
2017-07-28T07:09:11.404Z,6876
2017-07-28T07:10:21.679Z,7008
2017-07-28T07:11:31.957Z,7064
2017-07-28T07:12:41.918Z,7100
2017-07-28T07:13:51.879Z,6900
2017-07-28T07:15:01.841Z,6500
2017-07-28T07:16:11.808Z,6072
2017-07-28T07:17:21.793Z,6096
2017-07-28T07:18:31.777Z,6168
2017-07-28T07:19:41.882Z,6108
2017-07-28T07:20:51.837Z,5816
2017-07-28T07:22:02.104Z,5436
2017-07-28T07:23:12.061Z,5476
2017-07-28T07:24:22.334Z,6020
2017-07-28T07:25:32.300Z,6716
2017-07-28T07:26:42.567Z,6792
2017-07-28T07:27:52.841Z,7112
2017-07-28T07:29:02.803Z,7376
2017-07-28T07:30:12.454Z,7416
2017-07-28T07:31:22.744Z,7340
2017-07-28T07:32:32.699Z,7008
2017-07-28T07:33:42.660Z,6856
2017-07-28T07:34:52.942Z,6936
2017-07-28T07:36:03.226Z,7732
2017-07-28T07:37:13.522Z,8392
2017-07-28T07:38:23.485Z,8852
2017-07-28T07:39:33.449Z,8452
2017-07-28T07:40:43.407Z,7476
2017-07-28T07:41:53.688Z,7108
2017-07-28T07:43:03.966Z,6796
2017-07-28T07:44:14.238Z,5700
2017-07-28T07:45:24.196Z,4820
2017-07-28T07:46:34.476Z,4132
2017-07-28T07:47:44.759Z,3828
2017-07-28T07:48:54.717Z,3724
2017-07-28T07:50:05.002Z,4072
2017-07-28T07:51:15.283Z,5192
2017-07-28T07:52:25.246Z,6152
2017-07-28T07:53:35.200Z,6364
2017-07-28T07:54:45.477Z,6836
2017-07-28T07:55:55.118Z,7116
2017-07-28T07:57:05.393Z,7592
2017-07-28T07:58:15.359Z,8104
2017-07-28T07:59:25.002Z,8772
2017-07-28T08:00:34.973Z,9196
2017-07-28T08:01:44.932Z,9712
2017-07-28T08:02:54.892Z,9836
2017-07-28T08:04:04.850Z,9928
2017-07-28T08:05:14.500Z,10140
2017-07-28T08:06:24.773Z,10524
2017-07-28T08:07:34.414Z,10992
2017-07-28T08:08:44.373Z,11176
2017-07-28T08:09:54.017Z,11144
2017-07-28T08:11:04.290Z,11144
2017-07-28T08:12:13.999Z,10952
2017-07-28T08:13:24.279Z,10664
2017-07-28T08:14:34.238Z,10624
2017-07-28T08:15:43.890Z,11224
2017-07-28T08:16:54.167Z,11540
2017-07-28T08:18:04.459Z,11716
2017-07-28T08:19:14.422Z,11672
2017-07-28T08:20:24.700Z,11792
2017-07-28T08:21:34.979Z,11648
2017-07-28T08:22:44.943Z,11524
2017-07-28T08:23:54.904Z,11892
2017-07-28T08:25:04.557Z,11656
2017-07-28T08:26:14.829Z,11468
2017-07-28T08:27:25.114Z,11976
2017-07-28T08:28:35.074Z,12656
2017-07-28T08:29:45.341Z,12872
2017-07-28T08:30:55.614Z,12768
2017-07-28T08:32:05.898Z,12800
2017-07-28T08:33:16.179Z,12784
2017-07-28T08:34:26.450Z,13108
2017-07-28T08:35:36.726Z,13388
2017-07-28T08:36:46.996Z,13488
2017-07-28T08:37:57.276Z,13560
2017-07-28T08:39:07.249Z,13652
2017-07-28T08:40:17.528Z,13448
2017-07-28T08:41:27.490Z,13104
2017-07-28T08:42:36.825Z,13224
2017-07-28T08:43:47.103Z,13544
2017-07-28T08:44:57.081Z,14032
2017-07-28T08:46:07.045Z,13960
2017-07-28T08:47:17.320Z,13640
2017-07-28T08:48:27.586Z,13660
2017-07-28T08:49:37.872Z,14100
2017-07-28T08:50:47.827Z,14356
2017-07-28T08:51:57.790Z,14488
2017-07-28T08:53:09.749Z,14544
2017-07-28T08:54:20.025Z,14556
2017-07-28T08:55:30.297Z,14256
2017-07-28T08:56:40.261Z,13764
2017-07-28T08:57:50.224Z,13268
2017-07-28T08:59:00.180Z,12920
2017-07-28T09:00:09.835Z,13072
2017-07-28T09:01:19.808Z,13064
2017-07-28T09:02:30.087Z,12844
2017-07-28T09:03:40.364Z,12996
2017-07-28T09:04:50.636Z,13672
2017-07-28T09:06:00.288Z,13936
2017-07-28T09:07:10.574Z,14328
2017-07-28T09:08:20.856Z,14660
2017-07-28T09:09:30.814Z,15016
2017-07-28T09:10:40.786Z,15540
2017-07-28T09:11:51.073Z,16416
2017-07-28T09:13:01.354Z,16512
2017-07-28T09:14:11.006Z,16480
2017-07-28T09:15:21.286Z,16416
2017-07-28T09:16:30.937Z,15856
2017-07-28T09:17:40.590Z,15292
2017-07-28T09:18:50.553Z,14904
2017-07-28T09:20:00.832Z,14548
2017-07-28T09:21:11.107Z,14408
2017-07-28T09:22:21.068Z,13868
2017-07-28T09:23:31.034Z,13608
2017-07-28T09:24:41.312Z,13648
2017-07-28T09:25:51.275Z,13940
2017-07-28T09:27:01.233Z,14240
2017-07-28T09:28:10.896Z,14092
2017-07-28T09:29:21.181Z,14020
2017-07-28T09:30:31.143Z,13816
2017-07-28T09:31:41.108Z,13108
2017-07-28T09:32:51.391Z,12816
2017-07-28T09:34:01.354Z,12844
2017-07-28T09:35:11.631Z,12924
2017-07-28T09:36:21.910Z,13844
2017-07-28T09:37:32.192Z,14616
2017-07-28T09:38:42.154Z,14148
2017-07-28T09:39:52.128Z,13760
2017-07-28T09:41:02.098Z,13272
2017-07-28T09:42:12.378Z,13200
2017-07-28T09:43:22.663Z,13804
2017-07-28T09:44:32.944Z,14724
2017-07-28T09:45:42.585Z,15600
2017-07-28T09:46:52.561Z,15808
2017-07-28T09:48:02.209Z,15032
2017-07-28T09:49:12.489Z,15276
2017-07-28T09:50:22.144Z,14640
2017-07-28T09:51:32.418Z,14116
2017-07-28T09:52:42.696Z,13928
2017-07-28T09:53:52.665Z,13216
2017-07-28T09:55:02.935Z,12688
2017-07-28T09:56:12.900Z,12392
2017-07-28T09:57:23.197Z,12380
2017-07-28T09:58:33.165Z,11156
2017-07-28T09:59:43.439Z,10568
2017-07-28T10:00:53.401Z,10440
2017-07-28T10:02:03.679Z,10076
2017-07-28T10:03:13.954Z,9868
2017-07-28T10:04:24.233Z,9904
2017-07-28T10:05:34.193Z,9884
2017-07-28T10:06:44.491Z,10244
2017-07-28T10:07:54.767Z,10944
2017-07-28T10:09:04.415Z,10840
2017-07-28T10:10:14.376Z,10592
2017-07-28T10:11:24.652Z,10492
2017-07-28T10:12:34.936Z,11388
2017-07-28T10:13:44.585Z,13824
2017-07-28T10:14:54.856Z,14344
2017-07-28T10:16:04.509Z,14380
2017-07-28T10:17:14.477Z,13804
2017-07-28T10:18:24.752Z,14396
2017-07-28T10:19:34.716Z,14660
2017-07-28T10:20:44.690Z,14756
2017-07-28T10:21:54.687Z,15128
2017-07-28T10:23:04.968Z,17120
2017-07-28T10:24:14.929Z,17376
2017-07-28T10:25:24.897Z,16160
2017-07-28T10:26:35.172Z,15520
2017-07-28T10:27:45.478Z,14416
2017-07-28T10:28:55.450Z,14564
2017-07-28T10:30:05.408Z,15088
2017-07-28T10:31:15.684Z,14968
2017-07-28T10:32:25.643Z,14384
2017-07-28T10:33:35.292Z,13104
2017-07-28T10:34:45.571Z,13496
2017-07-28T10:35:55.850Z,12380
2017-07-28T10:37:05.500Z,11868
2017-07-28T10:38:15.464Z,11788
2017-07-28T10:39:25.740Z,11960
2017-07-28T10:40:35.701Z,11756
2017-07-28T10:41:45.975Z,11872
2017-07-28T10:42:55.939Z,12120
2017-07-28T10:44:05.903Z,13160
2017-07-28T10:45:16.185Z,13476
2017-07-28T10:46:26.464Z,13504
2017-07-28T10:47:36.429Z,14080
2017-07-28T10:48:46.717Z,14404
2017-07-28T10:49:56.997Z,14848
2017-07-28T10:51:06.646Z,15372
2017-07-28T10:52:16.950Z,16032
2017-07-28T10:53:27.231Z,15540
2017-07-28T10:54:37.506Z,14676
2017-07-28T10:55:47.777Z,14820
2017-07-28T10:56:57.742Z,14116
2017-07-28T10:58:07.710Z,14216
2017-07-28T10:59:17.997Z,14804
2017-07-28T11:00:28.278Z,15680
2017-07-28T11:01:37.930Z,16128
2017-07-28T11:02:47.576Z,17280
2017-07-28T11:03:57.869Z,17952
2017-07-28T11:05:07.848Z,18688
2017-07-28T11:06:17.492Z,17632
2017-07-28T11:07:27.769Z,15488
2017-07-28T11:08:37.742Z,14900
2017-07-28T11:09:47.698Z,13640
2017-07-28T11:10:57.977Z,13188
2017-07-28T11:12:07.625Z,12996
2017-07-28T11:13:17.622Z,13816
2017-07-28T11:14:27.898Z,14752
2017-07-28T11:15:37.861Z,16608
2017-07-28T11:16:48.146Z,18240
2017-07-28T11:17:58.426Z,18048
2017-07-28T11:19:08.080Z,17152
2017-07-28T11:20:18.044Z,14516
2017-07-28T11:21:28.324Z,12540
2017-07-28T11:22:38.286Z,11876
2017-07-28T11:23:48.567Z,12224
2017-07-28T11:24:58.843Z,13044
2017-07-28T11:26:09.136Z,14992
2017-07-28T11:27:19.412Z,16992
2017-07-28T11:28:29.686Z,18176
2017-07-28T11:29:39.972Z,15924
2017-07-28T11:30:50.246Z,14700
2017-07-28T11:32:00.518Z,15572
2017-07-28T11:33:10.169Z,16736
2017-07-28T11:34:20.448Z,18880
2017-07-28T11:35:30.722Z,18496
2017-07-28T11:36:41.003Z,20480
2017-07-28T11:37:51.321Z,25280
2017-07-28T11:39:01.281Z,57344
2017-07-28T11:40:11.558Z,62464
2017-07-28T11:41:21.844Z,14240
2017-07-28T11:42:32.120Z,12940
2017-07-28T11:43:42.088Z,12400
2017-07-28T11:44:52.368Z,12588
2017-07-28T11:46:02.350Z,13428
2017-07-28T11:47:12.632Z,13896
2017-07-28T11:48:22.596Z,16960
2017-07-28T11:49:32.873Z,23072
2017-07-28T11:50:43.149Z,92256
2017-07-28T11:51:53.113Z,89184
2017-07-28T11:53:03.397Z,90976
2017-07-28T11:54:13.670Z,88800
2017-07-28T11:55:23.946Z,85376
2017-07-28T11:56:33.912Z,85440
2017-07-28T11:57:43.947Z,88320
2017-07-28T11:58:54.239Z,82976
2017-07-28T12:00:03.894Z,59872
2017-07-28T12:01:13.550Z,86816
2017-07-28T12:02:23.831Z,19328
2017-07-28T12:03:34.116Z,18784
2017-07-28T12:04:44.417Z,52576
2017-07-28T12:05:54.695Z,71840
2017-07-28T12:07:04.033Z,12864
2017-07-28T12:08:14.321Z,35040
2017-07-28T12:09:24.296Z,12332
2017-07-28T12:10:34.575Z,12376
2017-07-28T12:11:44.871Z,12332
2017-07-28T12:12:55.158Z,43456
2017-07-28T12:14:05.123Z,18976
2017-07-28T12:15:15.445Z,83552
2017-07-28T12:16:25.743Z,91168
2017-07-28T12:17:39.695Z,65792
2017-07-28T12:18:49.668Z,20832
2017-07-28T12:19:59.318Z,92704
2017-07-28T12:21:09.605Z,92704
2017-07-28T12:22:19.887Z,26016
2017-07-28T12:23:30.171Z,16928
2017-07-28T12:24:40.454Z,13972
2017-07-28T12:25:50.423Z,15056
2017-07-28T12:27:00.394Z,15936
2017-07-28T12:28:10.047Z,16640
2017-07-28T12:29:20.329Z,24448
2017-07-28T12:30:30.611Z,86752
2017-07-28T12:31:40.899Z,50848
2017-07-28T12:32:51.177Z,37632
2017-07-28T12:34:01.142Z,46400
2017-07-28T12:35:11.428Z,17440
2017-07-28T12:36:21.711Z,18560
2017-07-28T12:37:31.988Z,22432
2017-07-28T12:38:42.274Z,23264
2017-07-28T12:39:52.554Z,21600
2017-07-28T12:41:02.526Z,43968
2017-07-28T12:42:12.488Z,74912
2017-07-28T12:43:22.767Z,83648
2017-07-28T12:44:32.419Z,80448
2017-07-28T12:45:42.393Z,65696
2017-07-28T12:46:52.675Z,14180
2017-07-28T12:48:02.644Z,13424
2017-07-28T12:49:12.933Z,13140
2017-07-28T12:50:22.904Z,19712
2017-07-28T12:51:32.897Z,15968
2017-07-28T12:52:42.866Z,24256
2017-07-28T12:53:53.153Z,59520
2017-07-28T12:55:03.448Z,24256
2017-07-28T12:56:13.099Z,88096
2017-07-28T12:57:23.381Z,84704
2017-07-28T12:58:33.359Z,85696
2017-07-28T12:59:43.641Z,34080
2017-07-28T13:00:53.611Z,22144
2017-07-28T13:02:03.895Z,68832
2017-07-28T13:03:14.180Z,70464
2017-07-28T13:04:24.464Z,15568
2017-07-28T13:05:34.745Z,15064
2017-07-28T13:06:44.711Z,12608
2017-07-28T13:07:54.994Z,12476
2017-07-28T13:09:05.287Z,12292
2017-07-28T13:10:15.257Z,12220
2017-07-28T13:11:25.538Z,12272
2017-07-28T13:12:35.824Z,13896
2017-07-28T13:13:46.111Z,17440
2017-07-28T13:14:56.393Z,25632
2017-07-28T13:16:06.669Z,39904
2017-07-28T13:17:16.633Z,42688
2017-07-28T13:18:26.607Z,44416
2017-07-28T13:19:36.574Z,63712
2017-07-28T13:20:46.536Z,70272
2017-07-28T13:21:56.816Z,68992
2017-07-28T13:23:07.110Z,74432
2017-07-28T13:24:17.086Z,74496
2017-07-28T13:25:27.362Z,75552
2017-07-28T13:26:37.644Z,81408
2017-07-28T13:27:47.933Z,80704
2017-07-28T13:28:57.897Z,77248
2017-07-28T13:30:07.865Z,77344
2017-07-28T13:31:18.156Z,77120
2017-07-28T13:32:28.124Z,78944
2017-07-28T13:33:38.349Z,84448
2017-07-28T13:34:48.637Z,83616
2017-07-28T13:35:58.933Z,88448
2017-07-28T13:37:08.898Z,89536
2017-07-28T13:38:18.254Z,90464
2017-07-28T13:39:28.544Z,86400
2017-07-28T13:40:38.827Z,86048
2017-07-28T13:41:49.118Z,86784
2017-07-28T13:42:59.085Z,82112
2017-07-28T13:44:09.371Z,81504
2017-07-28T13:45:19.353Z,87456
2017-07-28T13:46:29.647Z,90912
2017-07-28T13:47:39.932Z,22624
2017-07-28T13:48:50.222Z,90656
2017-07-28T13:50:00.531Z,11648
2017-07-28T13:51:10.815Z,10784
2017-07-28T13:52:21.106Z,10892
2017-07-28T13:53:31.076Z,11072
2017-07-28T13:54:41.060Z,12264
2017-07-28T13:55:51.341Z,12340
2017-07-28T13:57:01.625Z,12544
2017-07-28T13:58:11.904Z,68384
2017-07-28T13:59:22.196Z,96832
2017-07-28T14:00:32.163Z,91040
2017-07-28T14:01:42.455Z,88608
2017-07-28T14:02:52.425Z,91520
2017-07-28T14:04:02.711Z,10832
2017-07-28T14:05:12.998Z,9416
2017-07-28T14:06:22.653Z,9196
2017-07-28T14:07:32.618Z,9624
2017-07-28T14:08:42.596Z,11944
2017-07-28T14:09:52.892Z,85792
2017-07-28T14:11:02.884Z,83456
2017-07-28T14:12:12.854Z,79808
2017-07-28T14:13:23.138Z,82656
2017-07-28T14:14:33.420Z,83808
2017-07-28T14:15:43.711Z,79200
2017-07-28T14:16:53.992Z,72800
2017-07-28T14:18:04.277Z,21824
2017-07-28T14:19:14.558Z,80064
2017-07-28T14:20:24.848Z,77600
2017-07-28T14:21:34.825Z,67936
2017-07-28T14:22:45.108Z,78784
2017-07-28T14:23:55.393Z,77152
2017-07-28T14:25:05.365Z,66400
2017-07-28T14:26:15.651Z,69536
2017-07-28T14:27:25.936Z,43744
2017-07-28T14:28:35.907Z,24608
2017-07-28T14:29:46.194Z,52416
2017-07-28T14:30:56.485Z,59104
2017-07-28T14:32:06.774Z,50560
2017-07-28T14:33:16.425Z,59424
2017-07-28T14:34:26.711Z,62272
2017-07-28T14:35:36.997Z,60640
2017-07-28T14:36:47.284Z,56352
2017-07-28T14:37:56.939Z,56800
2017-07-28T14:39:07.224Z,60704
2017-07-28T14:40:17.508Z,37344
2017-07-28T14:41:27.481Z,42912
2017-07-28T14:42:37.467Z,66944
2017-07-28T14:43:47.757Z,8808
2017-07-28T14:44:58.037Z,11752
2017-07-28T14:46:08.323Z,21344
2017-07-28T14:47:18.304Z,86144
2017-07-28T14:48:28.582Z,80800
2017-07-28T14:49:38.555Z,76992
2017-07-28T14:50:48.530Z,75072
2017-07-28T14:51:58.495Z,81952
2017-07-28T14:53:08.464Z,86528
2017-07-28T14:54:18.752Z,84192
2017-07-28T14:55:28.723Z,67584
2017-07-28T14:56:39.008Z,38752
2017-07-28T14:57:48.980Z,76288
2017-07-28T14:58:59.266Z,36640
2017-07-28T15:00:09.573Z,10544
2017-07-28T15:01:19.855Z,13288
2017-07-28T15:02:30.136Z,92704
2017-07-28T15:03:40.111Z,93952
2017-07-28T15:04:50.400Z,46112
2017-07-28T15:06:00.379Z,87808
2017-07-28T15:07:10.685Z,85184
2017-07-28T15:08:20.650Z,11680
2017-07-28T15:09:30.930Z,9980
2017-07-28T15:10:40.896Z,10048
2017-07-28T15:11:50.872Z,15316
2017-07-28T15:13:00.847Z,90208
2017-07-28T15:14:11.129Z,68128
2017-07-28T15:15:21.415Z,88064
2017-07-28T15:16:31.381Z,90272
2017-07-28T15:17:41.660Z,91744
2017-07-28T15:18:51.941Z,45024
2017-07-28T15:20:02.217Z,85952
2017-07-28T15:21:12.500Z,83552
2017-07-28T15:22:22.780Z,19424
2017-07-28T15:23:33.063Z,11480
2017-07-28T15:24:43.342Z,9704
2017-07-28T15:25:53.628Z,8924
2017-07-28T15:27:03.594Z,10608
2017-07-28T15:28:13.557Z,41056
2017-07-28T15:29:22.898Z,13380
2017-07-28T15:30:33.175Z,11172
2017-07-28T15:31:43.454Z,11572
2017-07-28T15:32:53.417Z,14876
2017-07-28T15:34:03.380Z,15620
2017-07-28T15:35:13.665Z,40960
2017-07-28T15:36:23.947Z,79936